Costa Pacifica — ICJA — position and weather

sailwx.info

Track history (hours):
 
Tides and Currents Weather Stations Pressure Air Temp Water Temp Dewpoint Dewpoint Depression Visibility Wind Speed Wind Dir Waves Ship Positions

Costa Pacifica

Last reported at 2019-Mar-22 12:00 UTC. Time now 2019-Mar-22 12:25 UTC.
Position N 14°35' W 061°05'.

Length 290 m; draft 8.3 m.

Type: Ship. MMSI: 247258100.

Date/timePositionNaut miles runAvg speedWind from/ knotsBaromVisibWave heightAir tempDewpointWater temp
2019-Mar-22 12:00N 14°35' W 061°05'611.3
2019-Mar-22 11:30N 14°36' W 061°10'916.7
2019-Mar-22 10:59N 14°42' W 061°17'142 5.0
2019-Mar-21 06:44N 16°49' W 062°24'711.9
2019-Mar-21 06:11N 16°44' W 062°28'212.0
2019-Mar-21 06:00N 16°42' W 062°29'17 9.1
2019-Mar-21 04:10N 16°42' W 062°47'25 9.5
2019-Mar-21 01:35N 17°06' W 062°53'12 1.3
2019-Mar-20 16:25N 17°16' W 062°46'819.3
2019-Mar-20 16:00N 17°14' W 062°54'2220.9
2019-Mar-20 14:57N 17°08' W 063°16'1020.8
2019-Mar-20 14:29N 17°06' W 063°26'  
2019-Mar-18 00:15N 17°45' W 063°36'621.3
2019-Mar-17 23:57N 17°48' W 063°30'1721.1
2019-Mar-17 23:10N 17°56' W 063°15'421.6
2019-Mar-17 22:58N 17°58' W 063°11'715.8
2019-Mar-17 22:30N 18°00' W 063°04'1 1.8
2019-Mar-17 21:59N 18°01' W 063°03'0 0.0
2019-Mar-17 21:28N 18°01' W 063°03'0 0.0
2019-Mar-17 20:55N 18°01' W 063°03'0 0.0
2019-Mar-17 20:22N 18°01' W 063°03'0 0.0
2019-Mar-17 19:46N 18°01' W 063°03'0 0.0
2019-Mar-17 19:27N 18°01' W 063°03'0 0.0
2019-Mar-17 18:57N 18°01' W 063°03'0 0.0
2019-Mar-17 18:24N 18°01' W 063°03'0 0.0
2019-Mar-17 17:51N 18°01' W 063°03'0 0.0
2019-Mar-17 17:30N 18°01' W 063°03'0 0.0
2019-Mar-17 16:59N 18°01' W 063°03'0 0.0
2019-Mar-17 16:26N 18°01' W 063°03'2 3.5
2019-Mar-17 15:59N 17°60' W 063°04'1216.6
2019-Mar-17 15:17N 17°48' W 063°06'719.4
2019-Mar-17 14:54N 17°41' W 063°06'819.1
2019-Mar-17 14:30N 17°33' W 063°06'918.1
2019-Mar-17 14:00N 17°25' W 063°02'1319.0
2019-Mar-17 13:19N 17°15' W 062°54'2219.2
2019-Mar-17 12:10N 16°57' W 062°40'319.1
2019-Mar-17 12:00N 16°55' W 062°38'815.2
2019-Mar-17 11:29N 16°48' W 062°33'150 4.5
2019-Mar-16 02:25N 14°38' W 061°16'512.2
2019-Mar-16 02:00N 14°36' W 061°11'612.1
2019-Mar-16 01:30N 14°35' W 061°05'2 3.7
2019-Mar-16 01:01N 14°36' W 061°04'0 0.0
2019-Mar-16 00:30N 14°36' W 061°04'0 0.0
2019-Mar-16 00:00N 14°36' W 061°04'0 0.0
2019-Mar-15 23:30N 14°36' W 061°04'0 0.0
2019-Mar-15 23:00N 14°36' W 061°04'0 0.0
2019-Mar-15 22:29N 14°36' W 061°04'0 0.0
2019-Mar-15 21:59N 14°36' W 061°04'0 0.0
2019-Mar-15 21:29N 14°36' W 061°04'0 0.0
2019-Mar-15 20:59N 14°36' W 061°04'0 0.0
2019-Mar-15 20:29N 14°36' W 061°04'0 0.0
2019-Mar-15 19:58N 14°36' W 061°04'0 0.0
2019-Mar-15 19:28N 14°36' W 061°04'0 0.0
2019-Mar-15 18:58N 14°36' W 061°04'0 0.0
2019-Mar-15 18:28N 14°36' W 061°04'0 0.0
2019-Mar-15 18:00N 14°36' W 061°04'0 0.0
2019-Mar-15 17:30N 14°36' W 061°04'0 0.0
2019-Mar-15 17:00N 14°36' W 061°04'0 0.0
2019-Mar-15 13:32N 14°36' W 061°04'0 0.0
2019-Mar-15 13:29N 14°36' W 061°04'0 0.0
2019-Mar-15 12:53N 14°36' W 061°04'0 0.3
2019-Mar-15 12:30N 14°36' W 061°04'1 2.3
2019-Mar-15 12:00N 14°35' W 061°04'510.1
2019-Mar-15 11:30N 14°36' W 061°09'815.3
2019-Mar-15 11:00N 14°41' W 061°16'142 4.9
2019-Mar-14 06:11N 16°44' W 062°28'412.4
2019-Mar-14 05:51N 16°41' W 062°31'1510.2
2019-Mar-14 04:24N 16°43' W 062°47'1212.1
2019-Mar-14 03:25N 16°49' W 062°57'18 9.7
2019-Mar-14 01:32N 17°06' W 062°53'013.2
2019-Mar-14 01:30N 17°07' W 062°53'12 1.4
2019-Mar-13 16:31N 17°16' W 062°44'311.0
2019-Mar-13 16:14N 17°15' W 062°47'518.7
2019-Mar-13 15:59N 17°13' W 062°52'918.7
2019-Mar-13 15:29N 17°11' W 063°01'2318.6
2019-Mar-13 14:15N 17°06' W 063°24'  
Track history (hours):
 
Tides and Currents Weather Stations Pressure Air Temp Water Temp Dewpoint Dewpoint Depression Visibility Wind Speed Wind Dir Waves Ship Positions

Costa Pacifica

Last reported at 2019-Mar-22 12:00 UTC. Time now 2019-Mar-22 12:25 UTC.
Position N 14°35' W 061°05'.

Length 290 m; draft 8.3 m.

Type: Ship. MMSI: 247258100.

Date/timePositionNaut miles runAvg speedWind from/ knotsBaromVisibWave heightAir tempDewpointWater temp
2019-Mar-22 12:00N 14°35' W 061°05'611.3
2019-Mar-22 11:30N 14°36' W 061°10'916.7
2019-Mar-22 10:59N 14°42' W 061°17'142 5.0
2019-Mar-21 06:44N 16°49' W 062°24'711.9
2019-Mar-21 06:11N 16°44' W 062°28'212.0
2019-Mar-21 06:00N 16°42' W 062°29'17 9.1
2019-Mar-21 04:10N 16°42' W 062°47'25 9.5
2019-Mar-21 01:35N 17°06' W 062°53'12 1.3
2019-Mar-20 16:25N 17°16' W 062°46'819.3
2019-Mar-20 16:00N 17°14' W 062°54'2220.9
2019-Mar-20 14:57N 17°08' W 063°16'1020.8
2019-Mar-20 14:29N 17°06' W 063°26'  
2019-Mar-18 00:15N 17°45' W 063°36'621.3
2019-Mar-17 23:57N 17°48' W 063°30'1721.1
2019-Mar-17 23:10N 17°56' W 063°15'421.6
2019-Mar-17 22:58N 17°58' W 063°11'715.8
2019-Mar-17 22:30N 18°00' W 063°04'1 1.8
2019-Mar-17 21:59N 18°01' W 063°03'0 0.0
2019-Mar-17 21:28N 18°01' W 063°03'0 0.0
2019-Mar-17 20:55N 18°01' W 063°03'0 0.0
2019-Mar-17 20:22N 18°01' W 063°03'0 0.0
2019-Mar-17 19:46N 18°01' W 063°03'0 0.0
2019-Mar-17 19:27N 18°01' W 063°03'0 0.0
2019-Mar-17 18:57N 18°01' W 063°03'0 0.0
2019-Mar-17 18:24N 18°01' W 063°03'0 0.0
2019-Mar-17 17:51N 18°01' W 063°03'0 0.0
2019-Mar-17 17:30N 18°01' W 063°03'0 0.0
2019-Mar-17 16:59N 18°01' W 063°03'0 0.0
2019-Mar-17 16:26N 18°01' W 063°03'2 3.5
2019-Mar-17 15:59N 17°60' W 063°04'1216.6
2019-Mar-17 15:17N 17°48' W 063°06'719.4
2019-Mar-17 14:54N 17°41' W 063°06'819.1
2019-Mar-17 14:30N 17°33' W 063°06'918.1
2019-Mar-17 14:00N 17°25' W 063°02'1319.0
2019-Mar-17 13:19N 17°15' W 062°54'2219.2
2019-Mar-17 12:10N 16°57' W 062°40'319.1
2019-Mar-17 12:00N 16°55' W 062°38'815.2
2019-Mar-17 11:29N 16°48' W 062°33'150 4.5
2019-Mar-16 02:25N 14°38' W 061°16'512.2
2019-Mar-16 02:00N 14°36' W 061°11'612.1
2019-Mar-16 01:30N 14°35' W 061°05'2 3.7
2019-Mar-16 01:01N 14°36' W 061°04'0 0.0
2019-Mar-16 00:30N 14°36' W 061°04'0 0.0
2019-Mar-16 00:00N 14°36' W 061°04'0 0.0
2019-Mar-15 23:30N 14°36' W 061°04'0 0.0
2019-Mar-15 23:00N 14°36' W 061°04'0 0.0
2019-Mar-15 22:29N 14°36' W 061°04'0 0.0
2019-Mar-15 21:59N 14°36' W 061°04'0 0.0
2019-Mar-15 21:29N 14°36' W 061°04'0 0.0
2019-Mar-15 20:59N 14°36' W 061°04'0 0.0
2019-Mar-15 20:29N 14°36' W 061°04'0 0.0
2019-Mar-15 19:58N 14°36' W 061°04'0 0.0
2019-Mar-15 19:28N 14°36' W 061°04'0 0.0
2019-Mar-15 18:58N 14°36' W 061°04'0 0.0
2019-Mar-15 18:28N 14°36' W 061°04'0 0.0
2019-Mar-15 18:00N 14°36' W 061°04'0 0.0
2019-Mar-15 17:30N 14°36' W 061°04'0 0.0
2019-Mar-15 17:00N 14°36' W 061°04'0 0.0
2019-Mar-15 13:32N 14°36' W 061°04'0 0.0
2019-Mar-15 13:29N 14°36' W 061°04'0 0.0
2019-Mar-15 12:53N 14°36' W 061°04'0 0.3
2019-Mar-15 12:30N 14°36' W 061°04'1 2.3
2019-Mar-15 12:00N 14°35' W 061°04'510.1
2019-Mar-15 11:30N 14°36' W 061°09'815.3
2019-Mar-15 11:00N 14°41' W 061°16'142 4.9
2019-Mar-14 06:11N 16°44' W 062°28'412.4
2019-Mar-14 05:51N 16°41' W 062°31'1510.2
2019-Mar-14 04:24N 16°43' W 062°47'1212.1
2019-Mar-14 03:25N 16°49' W 062°57'18 9.7
2019-Mar-14 01:32N 17°06' W 062°53'013.2
2019-Mar-14 01:30N 17°07' W 062°53'12 1.4
2019-Mar-13 16:31N 17°16' W 062°44'311.0
2019-Mar-13 16:14N 17°15' W 062°47'518.7
2019-Mar-13 15:59N 17°13' W 062°52'918.7
2019-Mar-13 15:29N 17°11' W 063°01'2318.6
2019-Mar-13 14:15N 17°06' W 063°24'  

Dump ship's entire track history